createdAt,value
2023-10-23T00:01:37.476Z,100824.88
2023-10-23T00:04:04.465Z,100819.72
2023-10-23T00:06:32.768Z,100821.09
2023-10-23T00:08:59.576Z,100825.78
2023-10-23T00:11:27.407Z,100828.56
2023-10-23T00:13:55.529Z,100831.59
2023-10-23T00:16:23.112Z,100831.84
2023-10-23T00:18:50.155Z,100825.88
2023-10-23T00:21:17.793Z,100824.44
2023-10-23T00:23:45.775Z,100823.16
2023-10-23T00:26:12.398Z,100828.69
2023-10-23T00:28:39.248Z,100824.75
2023-10-23T00:31:05.967Z,100821.91
2023-10-23T00:33:32.938Z,100827.69
2023-10-23T00:36:00.512Z,100825.69
2023-10-23T00:38:27.128Z,100834.13
2023-10-23T00:40:55.131Z,100837.13
2023-10-23T00:43:23.056Z,100839.69
2023-10-23T00:45:51.897Z,100846.25
2023-10-23T00:48:21.102Z,100845.06
2023-10-23T00:50:47.940Z,100842.94
2023-10-23T00:53:15.339Z,100843.28
2023-10-23T00:55:42.287Z,100842.97
2023-10-23T00:58:10.411Z,100845.97
2023-10-23T01:00:37.256Z,100845.50
2023-10-23T01:03:04.837Z,100847.66
2023-10-23T01:05:32.646Z,100846.44
2023-10-23T01:07:59.338Z,100835.22
2023-10-23T01:10:25.975Z,100829.47
2023-10-23T01:12:53.971Z,100832.47
2023-10-23T01:15:22.040Z,100829.44
2023-10-23T01:17:48.812Z,100826.09
2023-10-23T01:20:16.418Z,100826.34
2023-10-23T01:22:42.881Z,100821.44
2023-10-23T01:25:13.309Z,100824.53
2023-10-23T01:27:40.002Z,100821.41
2023-10-23T01:30:08.071Z,100829.78
2023-10-23T01:32:34.763Z,100828.47
2023-10-23T01:35:01.522Z,100833.97
2023-10-23T01:37:28.258Z,100826.31
2023-10-23T01:39:54.931Z,100833.38
2023-10-23T01:42:23.011Z,100834.22
2023-10-23T01:44:49.638Z,100833.50
2023-10-23T01:47:16.271Z,100828.97
2023-10-23T01:49:42.930Z,100834.09
2023-10-23T01:52:09.590Z,100837.81
2023-10-23T01:54:36.296Z,100834.44
2023-10-23T01:57:03.389Z,100835.44
2023-10-23T01:59:31.463Z,100837.56
2023-10-23T02:01:58.112Z,100840.41
2023-10-23T02:04:24.873Z,100843.31
2023-10-23T02:06:51.578Z,100839.94
2023-10-23T02:09:18.332Z,100846.41
2023-10-23T02:11:45.836Z,100848.19
2023-10-23T02:14:12.542Z,100839.91
2023-10-23T02:16:40.645Z,100844.47
2023-10-23T02:19:07.426Z,100849.00
2023-10-23T02:21:34.179Z,100846.94
2023-10-23T02:24:00.815Z,100847.16
2023-10-23T02:26:29.029Z,100863.09
2023-10-23T02:28:55.679Z,100850.38
2023-10-23T02:31:22.496Z,100852.25
2023-10-23T02:33:50.584Z,100848.19
2023-10-23T02:36:17.327Z,100851.91
2023-10-23T02:38:44.162Z,100846.75
2023-10-23T02:41:12.377Z,100846.75
2023-10-23T02:43:39.055Z,100853.78
2023-10-23T02:46:05.813Z,100852.34
2023-10-23T02:48:33.102Z,100850.66
2023-10-23T02:51:03.933Z,100848.38
2023-10-23T02:53:31.147Z,100847.97
2023-10-23T02:56:00.306Z,100852.63
2023-10-23T02:58:26.969Z,100846.72
2023-10-23T03:00:53.674Z,100847.78
2023-10-23T03:03:20.509Z,100850.53
2023-10-23T03:05:47.682Z,100851.47
2023-10-23T03:08:15.714Z,100848.00
2023-10-23T03:10:43.952Z,100852.53
2023-10-23T03:13:10.614Z,100852.31
2023-10-23T03:15:38.123Z,100852.09
2023-10-23T03:18:06.641Z,100852.31
2023-10-23T03:20:33.385Z,100859.47
2023-10-23T03:23:00.040Z,100856.00
2023-10-23T03:25:28.081Z,100856.00
2023-10-23T03:27:54.778Z,100853.50
2023-10-23T03:30:21.728Z,100863.28
2023-10-23T03:32:48.779Z,100864.22
2023-10-23T03:35:15.512Z,100856.47
2023-10-23T03:37:42.182Z,100864.47
2023-10-23T03:40:10.316Z,100865.19
2023-10-23T03:42:38.444Z,100861.59
2023-10-23T03:45:05.644Z,100855.41
2023-10-23T03:47:32.498Z,100859.59
2023-10-23T03:49:59.143Z,100870.84
2023-10-23T03:52:25.874Z,100868.09
2023-10-23T03:54:52.515Z,100870.41
2023-10-23T03:57:19.221Z,100860.59
2023-10-23T03:59:47.234Z,100863.34
2023-10-23T04:02:13.905Z,100868.63
2023-10-23T04:04:40.657Z,100875.78
2023-10-23T04:07:07.308Z,100879.13
2023-10-23T04:09:33.954Z,100880.94
2023-10-23T04:12:00.549Z,100873.03
2023-10-23T04:14:27.144Z,100873.97
2023-10-23T04:16:56.040Z,100880.84
2023-10-23T04:19:22.672Z,100875.56
2023-10-23T04:21:49.357Z,100868.22
2023-10-23T04:24:16.061Z,100873.25
2023-10-23T04:26:42.697Z,100870.28
2023-10-23T04:29:09.339Z,100878.50
2023-10-23T04:31:36.048Z,100882.06
2023-10-23T04:34:04.513Z,100883.75
2023-10-23T04:36:31.148Z,100873.47
2023-10-23T04:38:57.819Z,100877.03
2023-10-23T04:41:24.443Z,100872.00
2023-10-23T04:43:51.086Z,100873.03
2023-10-23T04:46:17.831Z,100871.59
2023-10-23T04:48:44.553Z,100881.13
2023-10-23T04:51:12.564Z,100883.16
2023-10-23T04:53:40.112Z,100880.63
2023-10-23T04:56:07.390Z,100875.00
2023-10-23T04:58:34.118Z,100875.19
2023-10-23T05:01:00.897Z,100866.59
2023-10-23T05:03:27.733Z,100863.72
2023-10-23T05:05:54.439Z,100864.66
2023-10-23T05:08:23.257Z,100869.72
2023-10-23T05:10:49.870Z,100871.41
2023-10-23T05:13:16.513Z,100873.53
2023-10-23T05:15:43.254Z,100873.72
2023-10-23T05:18:09.892Z,100865.34
2023-10-23T05:20:36.534Z,100866.06
2023-10-23T05:23:03.258Z,100863.22
2023-10-23T05:25:31.305Z,100856.06
2023-10-23T05:27:57.961Z,100854.28
2023-10-23T05:30:24.664Z,100858.69
2023-10-23T05:32:51.339Z,100857.13
2023-10-23T05:35:18.042Z,100863.22
2023-10-23T05:37:44.689Z,100870.41
2023-10-23T05:40:12.389Z,100865.47
2023-10-23T05:42:41.945Z,100866.41
2023-10-23T05:45:10.889Z,100866.50
2023-10-23T05:47:37.609Z,100867.69
2023-10-23T05:50:04.950Z,100864.31
2023-10-23T05:52:31.461Z,100865.16
2023-10-23T05:54:59.262Z,100865.28
2023-10-23T05:57:27.088Z,100868.72
2023-10-23T05:59:55.103Z,100876.75
2023-10-23T06:02:21.715Z,100866.44
2023-10-23T06:04:48.586Z,100867.41
2023-10-23T06:07:15.292Z,100862.25
2023-10-23T06:09:42.338Z,100871.28
2023-10-23T06:12:09.471Z,100869.50
2023-10-23T06:14:36.149Z,100866.03
2023-10-23T06:17:13.742Z,100865.81
2023-10-23T06:19:40.569Z,100872.66
2023-10-23T06:22:14.487Z,100864.63
2023-10-23T06:24:41.124Z,100876.84
2023-10-23T06:27:09.439Z,100870.63
2023-10-23T06:29:36.191Z,100880.09
2023-10-23T06:32:04.071Z,100875.81
2023-10-23T06:34:32.189Z,100878.53
2023-10-23T06:36:58.753Z,100884.41
2023-10-23T06:39:27.119Z,100883.69
2023-10-23T06:41:53.730Z,100888.81
2023-10-23T06:44:20.330Z,100880.84
2023-10-23T06:46:47.006Z,100882.28
2023-10-23T06:49:13.724Z,100883.03
2023-10-23T06:51:41.712Z,100883.88
2023-10-23T06:54:08.385Z,100887.22
2023-10-23T06:56:36.511Z,100883.41
2023-10-23T06:59:03.255Z,100887.41
2023-10-23T07:01:41.684Z,100887.69
2023-10-23T07:04:10.980Z,100890.09
2023-10-23T07:09:20.551Z,100891.16
2023-10-23T07:11:48.241Z,100895.00
2023-10-23T07:14:15.170Z,100892.78
2023-10-23T07:16:41.961Z,100897.50
2023-10-23T07:19:08.833Z,100887.81
2023-10-23T07:21:35.538Z,100892.72
2023-10-23T07:24:02.251Z,100898.34
2023-10-23T07:26:30.839Z,100894.34
2023-10-23T07:28:57.884Z,100897.22
2023-10-23T07:31:24.623Z,100892.00
2023-10-23T07:33:51.280Z,100886.50
2023-10-23T07:36:17.963Z,100890.72
2023-10-23T07:38:46.214Z,100882.22
2023-10-23T07:41:14.194Z,100891.09
2023-10-23T07:43:43.193Z,100880.34
2023-10-23T07:46:16.525Z,100884.56
2023-10-23T07:48:44.906Z,100874.50
2023-10-23T07:51:11.599Z,100885.03
2023-10-23T07:53:38.317Z,100883.84
2023-10-23T07:56:06.187Z,100881.59
2023-10-23T07:58:34.689Z,100874.50
2023-10-23T08:01:07.012Z,100872.97
2023-10-23T08:03:34.392Z,100871.59
2023-10-23T08:06:01.301Z,100872.94
2023-10-23T08:08:28.019Z,100870.06
2023-10-23T08:10:54.761Z,100864.53
2023-10-23T08:13:21.440Z,100859.75
2023-10-23T08:15:49.053Z,100862.00
2023-10-23T08:18:29.981Z,100853.84
2023-10-23T08:21:01.009Z,100861.28
2023-10-23T08:23:27.624Z,100868.00
2023-10-23T08:25:54.214Z,100870.28
2023-10-23T08:28:20.875Z,100868.97
2023-10-23T08:30:47.591Z,100867.28
2023-10-23T08:33:14.327Z,100876.50
2023-10-23T08:35:42.390Z,100879.72
2023-10-23T08:38:09.084Z,100881.06
2023-10-23T08:40:36.048Z,100888.25
2023-10-23T08:43:02.748Z,100887.19
2023-10-23T08:45:29.601Z,100880.31
2023-10-23T08:47:56.303Z,100887.41
2023-10-23T08:50:22.988Z,100872.28
2023-10-23T08:53:00.808Z,100863.53
2023-10-23T08:55:29.138Z,100869.28
2023-10-23T08:57:55.978Z,100864.31
2023-10-23T09:00:22.955Z,100870.50
2023-10-23T09:02:52.362Z,100863.78
2023-10-23T09:05:22.197Z,100861.59
2023-10-23T09:07:49.222Z,100860.84
2023-10-23T09:10:17.239Z,100859.09
2023-10-23T09:12:43.919Z,100861.34
2023-10-23T09:15:15.429Z,100852.19
2023-10-23T09:17:42.181Z,100853.31
2023-10-23T09:20:23.141Z,100849.88
2023-10-23T09:22:51.583Z,100851.97
2023-10-23T09:25:20.500Z,100854.78
2023-10-23T09:27:47.993Z,100850.06
2023-10-23T09:30:15.382Z,100850.91
2023-10-23T09:32:41.844Z,100848.66
2023-10-23T09:35:09.355Z,100851.50
2023-10-23T09:37:36.884Z,100845.00
2023-10-23T09:40:07.295Z,100837.97
2023-10-23T09:42:37.021Z,100832.28
2023-10-23T09:45:04.811Z,100833.47
2023-10-23T09:47:32.272Z,100828.50
2023-10-23T09:49:59.407Z,100830.19
2023-10-23T09:52:27.863Z,100827.28
2023-10-23T09:55:01.519Z,100826.88
2023-10-23T09:57:31.930Z,100829.84
2023-10-23T10:00:01.543Z,100822.09
2023-10-23T10:02:30.777Z,100817.66
2023-10-23T10:05:01.537Z,100815.41
2023-10-23T10:07:32.982Z,100816.44
2023-10-23T10:10:01.453Z,100813.13
2023-10-23T10:12:29.257Z,100821.19
2023-10-23T10:14:57.062Z,100817.31
2023-10-23T10:17:27.898Z,100823.84
2023-10-23T10:20:04.536Z,100818.13
2023-10-23T10:22:43.113Z,100819.63
2023-10-23T10:25:21.448Z,100807.31
2023-10-23T10:38:42.927Z,100788.69
2023-10-23T10:41:15.848Z,100783.41
2023-10-23T10:43:44.565Z,100773.22
2023-10-23T10:51:32.589Z,100772.50
2023-10-23T10:54:02.289Z,100761.38
2023-10-23T10:56:29.024Z,100763.06
2023-10-23T10:58:55.770Z,100760.53
2023-10-23T11:01:22.573Z,100755.09
2023-10-23T11:03:49.483Z,100754.94
2023-10-23T11:06:17.200Z,100756.97
2023-10-23T11:08:43.896Z,100752.41
2023-10-23T11:11:12.062Z,100750.56
2023-10-23T11:13:38.892Z,100743.44
2023-10-23T11:16:06.104Z,100744.50
2023-10-23T11:18:33.164Z,100739.47
2023-10-23T11:21:00.463Z,100732.50
2023-10-23T11:23:28.950Z,100733.59
2023-10-23T11:25:55.913Z,100727.88
2023-10-23T11:28:24.610Z,100720.34
2023-10-23T11:30:57.001Z,100724.53
2023-10-23T11:33:23.888Z,100716.59
2023-10-23T11:35:51.452Z,100709.72
2023-10-23T11:38:20.619Z,100702.16
2023-10-23T11:40:47.874Z,100695.97
2023-10-23T11:43:15.522Z,100701.13
2023-10-23T11:45:45.031Z,100695.19
2023-10-23T11:48:12.536Z,100688.06
2023-10-23T11:50:40.407Z,100674.38
2023-10-23T11:53:07.247Z,100670.59
2023-10-23T11:55:34.858Z,100666.34
2023-10-23T11:58:03.133Z,100661.50
2023-10-23T12:00:32.333Z,100656.31
2023-10-23T12:03:00.468Z,100653.69
2023-10-23T12:05:27.206Z,100655.50
2023-10-23T12:07:55.703Z,100644.06
2023-10-23T12:10:23.478Z,100649.22
2023-10-23T12:12:50.218Z,100647.25
2023-10-23T12:15:16.893Z,100639.28
2023-10-23T12:17:43.683Z,100640.97
2023-10-23T12:20:12.663Z,100638.31
2023-10-23T12:22:41.066Z,100636.66
2023-10-23T12:25:08.878Z,100637.03
2023-10-23T12:27:36.385Z,100633.34
2023-10-23T12:30:09.402Z,100626.56
2023-10-23T12:33:16.720Z,100627.63
2023-10-23T12:35:24.960Z,100621.03
2023-10-23T12:37:51.707Z,100620.94
2023-10-23T12:40:18.599Z,100613.22
2023-10-23T12:42:46.105Z,100604.66
2023-10-23T12:45:12.926Z,100598.34
2023-10-23T12:47:39.565Z,100581.41
2023-10-23T12:50:06.919Z,100575.97
2023-10-23T12:52:35.112Z,100571.63
2023-10-23T12:55:01.818Z,100569.44
2023-10-23T12:57:29.271Z,100562.84
2023-10-23T12:59:55.894Z,100556.19
2023-10-23T13:02:22.542Z,100549.56
2023-10-23T13:04:50.095Z,100547.94
2023-10-23T13:07:17.152Z,100550.25
2023-10-23T13:09:48.035Z,100543.50
2023-10-23T13:12:15.500Z,100544.38
2023-10-23T13:14:42.155Z,100528.44
2023-10-23T13:17:09.269Z,100527.75
2023-10-23T13:19:35.996Z,100516.16
2023-10-23T13:22:02.599Z,100516.34
2023-10-23T13:24:39.322Z,100512.16
2023-10-23T13:27:14.794Z,100505.03
2023-10-23T13:29:41.633Z,100495.75
2023-10-23T13:32:08.491Z,100485.38
2023-10-23T13:34:35.185Z,100483.47
2023-10-23T13:37:28.494Z,100474.22
2023-10-23T13:39:55.134Z,100474.44
2023-10-23T13:42:30.120Z,100463.47
2023-10-23T13:44:56.721Z,100465.78
2023-10-23T13:49:48.542Z,100445.63
2023-10-23T13:52:15.268Z,100444.91
2023-10-23T13:54:41.891Z,100441.31
2023-10-23T13:57:08.572Z,100429.50
2023-10-23T13:59:36.572Z,100433.44
2023-10-23T14:02:03.512Z,100420.25
2023-10-23T14:04:30.196Z,100411.78
2023-10-23T14:06:56.944Z,100405.75
2023-10-23T14:09:43.377Z,100407.06
2023-10-23T14:12:10.238Z,100405.03
2023-10-23T14:14:38.457Z,100396.56
2023-10-23T14:17:05.681Z,100393.69
2023-10-23T14:19:45.601Z,100378.09
2023-10-23T14:22:17.811Z,100380.59
2023-10-23T14:24:44.593Z,100370.00
2023-10-23T14:27:19.018Z,100371.44
2023-10-23T14:29:47.068Z,100363.78
2023-10-23T14:32:15.509Z,100355.31
2023-10-23T14:34:42.181Z,100358.09
2023-10-23T14:37:09.864Z,100356.75
2023-10-23T14:39:40.552Z,100352.91
2023-10-23T14:42:09.442Z,100347.94
2023-10-23T14:44:37.696Z,100342.94
2023-10-23T14:47:06.287Z,100344.03
2023-10-23T14:49:33.037Z,100340.75
2023-10-23T14:51:59.730Z,100335.25
2023-10-23T14:54:26.306Z,100334.44
2023-10-23T14:56:52.910Z,100327.91
2023-10-23T14:59:19.551Z,100320.97
2023-10-23T15:01:46.377Z,100323.09
2023-10-23T15:04:14.632Z,100308.34
2023-10-23T15:06:42.452Z,100300.03
2023-10-23T15:09:09.110Z,100298.50
2023-10-23T15:11:35.729Z,100293.53
2023-10-23T15:14:02.400Z,100290.19
2023-10-23T15:16:31.106Z,100288.53
2023-10-23T15:18:58.626Z,100285.53
2023-10-23T15:21:26.702Z,100281.34
2023-10-23T15:23:53.031Z,100280.84
2023-10-23T15:26:19.702Z,100286.44
2023-10-23T15:28:48.016Z,100277.13
2023-10-23T15:31:14.710Z,100279.25
2023-10-23T15:33:41.559Z,100282.06
2023-10-23T15:36:08.342Z,100279.88
2023-10-23T15:38:36.809Z,100271.72
2023-10-23T15:41:05.434Z,100272.19
2023-10-23T15:43:33.851Z,100268.47
2023-10-23T15:46:00.622Z,100271.72
2023-10-23T15:48:27.280Z,100271.50
2023-10-23T15:50:59.640Z,100271.13
2023-10-23T15:53:27.204Z,100285.63
2023-10-23T15:55:55.726Z,100288.88
2023-10-23T15:58:22.531Z,100294.78
2023-10-23T16:00:49.425Z,100290.06
2023-10-23T16:03:16.315Z,100289.81
2023-10-23T16:05:43.100Z,100298.22
2023-10-23T16:08:09.872Z,100300.63
2023-10-23T16:10:36.700Z,100302.88
2023-10-23T16:13:05.655Z,100310.22
2023-10-23T16:15:32.249Z,100307.19
2023-10-23T16:17:59.142Z,100314.47
2023-10-23T16:20:26.659Z,100311.13
2023-10-23T16:22:53.328Z,100312.38
2023-10-23T16:25:20.243Z,100309.34
2023-10-23T16:27:46.899Z,100312.28
2023-10-23T16:30:15.162Z,100312.72
2023-10-23T16:32:41.817Z,100311.19
2023-10-23T16:35:09.905Z,100310.81
2023-10-23T16:37:36.929Z,100310.13
2023-10-23T16:40:03.960Z,100311.22
2023-10-23T16:42:31.961Z,100309.56
2023-10-23T16:44:58.801Z,100305.41
2023-10-23T16:47:31.059Z,100299.44
2023-10-23T16:49:57.818Z,100301.22
2023-10-23T16:52:24.446Z,100291.94
2023-10-23T16:54:51.148Z,100286.94
2023-10-23T16:57:19.830Z,100274.84
2023-10-23T16:59:47.163Z,100278.19
2023-10-23T17:02:13.932Z,100262.06
2023-10-23T17:04:41.988Z,100251.50
2023-10-23T17:07:09.162Z,100249.00
2023-10-23T17:09:35.649Z,100242.72
2023-10-23T17:12:03.066Z,100231.31
2023-10-23T17:14:29.684Z,100216.59
2023-10-23T17:17:00.363Z,100209.66
2023-10-23T17:19:27.034Z,100203.69
2023-10-23T17:21:55.076Z,100198.94
2023-10-23T17:24:21.725Z,100190.50
2023-10-23T17:26:48.384Z,100172.28
2023-10-23T17:29:15.255Z,100165.03
2023-10-23T17:31:42.014Z,100149.47
2023-10-23T17:34:11.866Z,100157.94
2023-10-23T17:36:38.534Z,100160.72
2023-10-23T17:39:06.613Z,100162.53
2023-10-23T17:41:33.261Z,100158.09
2023-10-23T17:43:59.892Z,100159.88
2023-10-23T17:46:26.652Z,100160.72
2023-10-23T17:48:53.472Z,100163.38
2023-10-23T17:51:20.077Z,100160.03
2023-10-23T17:54:02.204Z,100166.97
2023-10-23T17:56:37.224Z,100143.34
2023-10-23T17:59:04.526Z,100139.59
2023-10-23T18:01:31.392Z,100142.94
2023-10-23T18:03:58.425Z,100155.44
2023-10-23T18:06:25.667Z,100150.84
2023-10-23T18:08:52.345Z,100135.13
2023-10-23T18:11:18.991Z,100122.59
2023-10-23T18:13:46.998Z,100121.09
2023-10-23T18:16:13.768Z,100117.47
2023-10-23T18:18:42.507Z,100116.91
2023-10-23T18:21:09.147Z,100117.09
2023-10-23T18:23:35.791Z,100108.34
2023-10-23T18:26:02.583Z,100110.97
2023-10-23T18:28:29.709Z,100108.19
2023-10-23T18:30:58.899Z,100112.19
2023-10-23T18:33:25.639Z,100106.22
2023-10-23T18:35:52.288Z,100096.63
2023-10-23T18:38:19.074Z,100095.78
2023-10-23T18:40:47.405Z,100087.06
2023-10-23T18:43:14.156Z,100086.38
2023-10-23T18:45:43.147Z,100071.50
2023-10-23T18:48:12.274Z,100080.78
2023-10-23T18:50:44.713Z,100086.63
2023-10-23T18:53:15.325Z,100092.72
2023-10-23T18:55:42.106Z,100104.06
2023-10-23T18:58:09.002Z,100106.03
2023-10-23T19:00:35.888Z,100110.34
2023-10-23T19:03:02.630Z,100099.75
2023-10-23T19:05:30.614Z,100102.22
2023-10-23T19:07:57.226Z,100092.13
2023-10-23T19:10:23.853Z,100088.50
2023-10-23T19:12:50.531Z,100074.31
2023-10-23T19:15:17.182Z,100070.97
2023-10-23T19:17:43.941Z,100060.56
2023-10-23T19:20:11.462Z,100054.47
2023-10-23T19:22:40.330Z,100054.28
2023-10-23T19:25:08.124Z,100050.84
2023-10-23T19:27:35.349Z,100042.91
2023-10-23T19:30:02.013Z,100039.59
2023-10-23T19:32:31.505Z,100040.94
2023-10-23T19:34:58.672Z,100049.56
2023-10-23T19:37:25.915Z,100038.16
2023-10-23T19:39:59.371Z,100035.66
2023-10-23T19:42:27.202Z,100040.34
2023-10-23T19:44:54.324Z,100035.06
2023-10-23T19:47:22.370Z,100032.41
2023-10-23T19:49:49.694Z,100035.19
2023-10-23T19:52:16.165Z,100031.59
2023-10-23T19:54:45.038Z,100025.16
2023-10-23T19:57:18.418Z,100023.19
2023-10-23T19:59:46.058Z,100014.69
2023-10-23T20:02:12.759Z,100009.69
2023-10-23T20:04:39.602Z,100003.72
2023-10-23T20:07:07.250Z,100010.06
2023-10-23T20:09:33.958Z,100003.19
2023-10-23T20:12:00.620Z,99997.06
2023-10-23T20:14:28.680Z,100000.69
2023-10-23T20:16:56.841Z,100000.69
2023-10-23T20:19:23.715Z,99994.47
2023-10-23T20:21:50.440Z,99989.50
2023-10-23T20:24:17.080Z,99989.00
2023-10-23T20:26:44.097Z,99982.94
2023-10-23T20:29:10.756Z,99978.34
2023-10-23T20:31:38.788Z,99975.47
2023-10-23T20:34:05.561Z,99966.94
2023-10-23T20:36:34.253Z,99966.94
2023-10-23T20:39:00.874Z,99965.25
2023-10-23T20:41:27.837Z,99961.25
2023-10-23T20:43:55.255Z,99966.56
2023-10-23T20:46:21.952Z,99958.63
2023-10-23T20:48:50.033Z,99965.41
2023-10-23T20:51:18.210Z,99957.31
2023-10-23T20:53:44.878Z,99962.97
2023-10-23T20:56:11.538Z,99949.09
2023-10-23T20:58:38.304Z,99949.25
2023-10-23T21:01:06.104Z,99946.59
2023-10-23T21:03:32.960Z,99945.78
2023-10-23T21:06:02.181Z,99948.41
2023-10-23T21:08:28.934Z,99949.91
2023-10-23T21:10:55.556Z,99944.78
2023-10-23T21:13:22.268Z,99938.53
2023-10-23T21:15:48.989Z,99935.34
2023-10-23T21:18:15.994Z,99944.44
2023-10-23T21:20:42.853Z,99930.38
2023-10-23T21:23:11.004Z,99931.88
2023-10-23T21:25:37.722Z,99933.53
2023-10-23T21:28:04.864Z,99933.25
2023-10-23T21:30:31.514Z,99932.09
2023-10-23T21:32:58.381Z,99926.94
2023-10-23T21:35:25.304Z,99919.38
2023-10-23T21:37:51.977Z,99918.72
2023-10-23T21:40:25.980Z,99915.91
2023-10-23T21:42:55.978Z,99912.13
2023-10-23T21:45:22.738Z,99915.75
2023-10-23T21:47:49.687Z,99904.53
2023-10-23T21:50:16.681Z,99902.84
2023-10-23T21:52:43.959Z,99896.59
2023-10-23T21:55:18.959Z,99899.41
2023-10-23T21:57:49.204Z,99900.75
2023-10-23T22:00:16.938Z,99891.69
2023-10-23T22:03:01.596Z,99871.53
2023-10-23T22:05:33.366Z,99885.91
2023-10-23T22:08:05.206Z,99876.81
2023-10-23T22:10:32.543Z,99876.13
2023-10-23T22:13:01.160Z,99880.78
2023-10-23T22:15:27.810Z,99876.88
2023-10-23T22:17:54.541Z,99887.75
2023-10-23T22:20:21.506Z,99884.81
2023-10-23T22:22:48.997Z,99883.53
2023-10-23T22:25:16.083Z,99885.34
2023-10-23T22:27:47.968Z,99886.66
2023-10-23T22:30:17.738Z,99887.16
2023-10-23T22:32:44.408Z,99880.34
2023-10-23T22:35:11.073Z,99880.34
2023-10-23T22:38:01.043Z,99883.69
2023-10-23T22:40:24.469Z,99889.00
2023-10-23T22:42:51.949Z,99888.34
2023-10-23T22:45:20.106Z,99890.66
2023-10-23T22:47:46.806Z,99884.53
2023-10-23T22:50:14.340Z,99888.84
2023-10-23T22:52:41.646Z,99884.91
2023-10-23T22:55:10.017Z,99886.22
2023-10-23T22:57:38.165Z,99879.13
2023-10-23T23:00:05.550Z,99881.28
2023-10-23T23:02:34.321Z,99887.41
2023-10-23T23:05:02.844Z,99893.53
2023-10-23T23:07:30.437Z,99891.88
2023-10-23T23:09:57.735Z,99899.16
2023-10-23T23:12:25.165Z,99887.41
2023-10-23T23:14:53.845Z,99893.22
2023-10-23T23:17:21.322Z,99899.69
2023-10-23T23:19:51.956Z,99898.84
2023-10-23T23:22:18.971Z,99906.34
2023-10-23T23:24:45.644Z,99908.50
2023-10-23T23:27:12.292Z,99908.66
2023-10-23T23:29:38.927Z,99907.47
2023-10-23T23:32:05.638Z,99896.88
2023-10-23T23:34:33.221Z,99906.66
2023-10-23T23:37:01.262Z,99900.53
2023-10-23T23:39:27.884Z,99901.16
2023-10-23T23:41:54.538Z,99895.41
2023-10-23T23:44:21.194Z,99911.28
2023-10-23T23:46:47.961Z,99908.31
2023-10-23T23:49:15.236Z,99898.72
2023-10-23T23:51:50.834Z,99898.56
2023-10-23T23:54:20.392Z,99900.69
2023-10-23T23:56:47.063Z,99901.84
2023-10-23T23:59:13.716Z,99899.69
